Terminal Aerodrome Forecast
Issued by NWS Los Angeles, CA

Home | Current Version | Previous Version | Text Only | Print | Product List | Glossary On
Versions: 1 2 3 4 5 6 7 8 9 10 11 12 13 14 15 16 17 18 19 20 21 22 23 24 25 26
000
FTUS46 KLOX 030239 AAA
TAFSMX
TAF AMD
KSMX 030239Z 0303/0324 30012G18KT P6SM SCT011
     FM030530 32006KT P6SM BKN008
     FM030800 VRB03KT 3SM BR OVC004
     FM031600 31008KT P6SM SCT007
     FM032000 32012KT P6SM SKC=

USA.gov is the U.S. government's official web portal to all federal, state and local government web resources and services.